sensor_id;sensor_type;location;lat;lon;timestamp;P1;durP1;ratioP1;P2;durP2;ratioP2
68178;SDS011;69812;42.632;23.440;2024-02-23T00:01:06;26.88;;;13.48;;
68178;SDS011;69812;42.632;23.440;2024-02-23T00:03:36;28.30;;;12.85;;
68178;SDS011;69812;42.632;23.440;2024-02-23T00:06:02;27.17;;;12.38;;
68178;SDS011;69812;42.632;23.440;2024-02-23T00:08:28;37.72;;;14.00;;
68178;SDS011;69812;42.632;23.440;2024-02-23T00:10:53;32.05;;;15.20;;
68178;SDS011;69812;42.632;23.440;2024-02-23T00:13:19;27.73;;;12.35;;
68178;SDS011;69812;42.632;23.440;2024-02-23T00:15:44;33.25;;;14.30;;
68178;SDS011;69812;42.632;23.440;2024-02-23T00:18:09;28.75;;;12.48;;
68178;SDS011;69812;42.632;23.440;2024-02-23T00:20:36;29.95;;;13.15;;
68178;SDS011;69812;42.632;23.440;2024-02-23T00:23:02;26.55;;;12.95;;
68178;SDS011;69812;42.632;23.440;2024-02-23T00:25:28;30.73;;;13.80;;
68178;SDS011;69812;42.632;23.440;2024-02-23T00:27:53;29.27;;;13.25;;
68178;SDS011;69812;42.632;23.440;2024-02-23T00:30:18;33.00;;;14.07;;
68178;SDS011;69812;42.632;23.440;2024-02-23T00:32:44;34.67;;;15.10;;
68178;SDS011;69812;42.632;23.440;2024-02-23T00:35:09;32.40;;;14.30;;
68178;SDS011;69812;42.632;23.440;2024-02-23T00:37:35;34.83;;;14.73;;
68178;SDS011;69812;42.632;23.440;2024-02-23T00:40:04;31.23;;;15.10;;
68178;SDS011;69812;42.632;23.440;2024-02-23T00:42:32;30.02;;;12.98;;
68178;SDS011;69812;42.632;23.440;2024-02-23T00:45:00;24.75;;;11.93;;
68178;SDS011;69812;42.632;23.440;2024-02-23T00:47:28;35.40;;;14.88;;
68178;SDS011;69812;42.632;23.440;2024-02-23T00:49:54;29.45;;;13.57;;
68178;SDS011;69812;42.632;23.440;2024-02-23T00:52:19;30.75;;;13.85;;
68178;SDS011;69812;42.632;23.440;2024-02-23T00:54:44;30.17;;;12.73;;
68178;SDS011;69812;42.632;23.440;2024-02-23T00:57:10;28.50;;;14.63;;
68178;SDS011;69812;42.632;23.440;2024-02-23T00:59:36;30.92;;;13.55;;
68178;SDS011;69812;42.632;23.440;2024-02-23T01:02:01;28.77;;;12.55;;
68178;SDS011;69812;42.632;23.440;2024-02-23T01:04:27;28.67;;;13.50;;
68178;SDS011;69812;42.632;23.440;2024-02-23T01:06:55;29.13;;;13.75;;
68178;SDS011;69812;42.632;23.440;2024-02-23T01:09:20;32.35;;;13.52;;
68178;SDS011;69812;42.632;23.440;2024-02-23T01:11:48;28.13;;;12.25;;
68178;SDS011;69812;42.632;23.440;2024-02-23T01:14:16;32.30;;;14.95;;
68178;SDS011;69812;42.632;23.440;2024-02-23T01:16:42;29.10;;;13.88;;
68178;SDS011;69812;42.632;23.440;2024-02-23T01:19:10;30.90;;;13.68;;
68178;SDS011;69812;42.632;23.440;2024-02-23T01:21:35;33.17;;;15.55;;
68178;SDS011;69812;42.632;23.440;2024-02-23T01:24:01;29.75;;;13.48;;
68178;SDS011;69812;42.632;23.440;2024-02-23T01:26:26;25.33;;;13.82;;
68178;SDS011;69812;42.632;23.440;2024-02-23T01:28:52;31.20;;;14.65;;
68178;SDS011;69812;42.632;23.440;2024-02-23T01:31:18;32.17;;;15.70;;
68178;SDS011;69812;42.632;23.440;2024-02-23T01:33:43;30.60;;;16.00;;
68178;SDS011;69812;42.632;23.440;2024-02-23T01:36:09;29.98;;;13.75;;
68178;SDS011;69812;42.632;23.440;2024-02-23T01:38:35;30.40;;;13.60;;
68178;SDS011;69812;42.632;23.440;2024-02-23T01:41:00;26.35;;;12.48;;
68178;SDS011;69812;42.632;23.440;2024-02-23T01:43:25;27.77;;;13.15;;
68178;SDS011;69812;42.632;23.440;2024-02-23T01:45:51;28.60;;;12.40;;
68178;SDS011;69812;42.632;23.440;2024-02-23T01:48:16;28.20;;;13.23;;
68178;SDS011;69812;42.632;23.440;2024-02-23T01:50:42;29.35;;;13.15;;
68178;SDS011;69812;42.632;23.440;2024-02-23T01:53:08;28.40;;;12.35;;
68178;SDS011;69812;42.632;23.440;2024-02-23T01:55:37;35.97;;;15.00;;
68178;SDS011;69812;42.632;23.440;2024-02-23T01:58:10;29.63;;;13.05;;
68178;SDS011;69812;42.632;23.440;2024-02-23T02:00:36;27.83;;;13.50;;
68178;SDS011;69812;42.632;23.440;2024-02-23T02:03:02;27.50;;;12.55;;
68178;SDS011;69812;42.632;23.440;2024-02-23T02:05:28;26.95;;;12.30;;
68178;SDS011;69812;42.632;23.440;2024-02-23T02:07:53;29.33;;;14.77;;
68178;SDS011;69812;42.632;23.440;2024-02-23T02:10:23;25.33;;;12.30;;
68178;SDS011;69812;42.632;23.440;2024-02-23T02:12:50;26.90;;;13.00;;
68178;SDS011;69812;42.632;23.440;2024-02-23T02:15:15;27.92;;;12.55;;
68178;SDS011;69812;42.632;23.440;2024-02-23T02:17:41;28.38;;;13.13;;
68178;SDS011;69812;42.632;23.440;2024-02-23T02:20:06;26.63;;;11.90;;
68178;SDS011;69812;42.632;23.440;2024-02-23T02:22:38;24.23;;;12.45;;
68178;SDS011;69812;42.632;23.440;2024-02-23T02:25:04;25.00;;;12.18;;
68178;SDS011;69812;42.632;23.440;2024-02-23T02:27:30;22.27;;;11.68;;
68178;SDS011;69812;42.632;23.440;2024-02-23T02:29:56;26.95;;;12.02;;
68178;SDS011;69812;42.632;23.440;2024-02-23T02:32:22;29.42;;;13.80;;
68178;SDS011;69812;42.632;23.440;2024-02-23T02:34:48;28.67;;;13.07;;
68178;SDS011;69812;42.632;23.440;2024-02-23T02:37:14;25.05;;;11.75;;
68178;SDS011;69812;42.632;23.440;2024-02-23T02:39:39;30.30;;;12.25;;
68178;SDS011;69812;42.632;23.440;2024-02-23T02:42:07;26.35;;;12.45;;
68178;SDS011;69812;42.632;23.440;2024-02-23T02:44:40;30.95;;;12.95;;
68178;SDS011;69812;42.632;23.440;2024-02-23T02:47:05;28.77;;;11.85;;
68178;SDS011;69812;42.632;23.440;2024-02-23T02:49:31;21.30;;;10.60;;
68178;SDS011;69812;42.632;23.440;2024-02-23T02:51:56;24.77;;;11.35;;
68178;SDS011;69812;42.632;23.440;2024-02-23T02:54:21;25.75;;;11.32;;
68178;SDS011;69812;42.632;23.440;2024-02-23T02:56:47;23.52;;;10.98;;
68178;SDS011;69812;42.632;23.440;2024-02-23T02:59:19;24.00;;;10.65;;
68178;SDS011;69812;42.632;23.440;2024-02-23T03:01:44;25.52;;;11.25;;
68178;SDS011;69812;42.632;23.440;2024-02-23T03:04:11;31.33;;;12.00;;
68178;SDS011;69812;42.632;23.440;2024-02-23T03:06:37;27.75;;;11.50;;
68178;SDS011;69812;42.632;23.440;2024-02-23T03:09:05;23.65;;;11.73;;
68178;SDS011;69812;42.632;23.440;2024-02-23T03:11:32;20.88;;;10.13;;
68178;SDS011;69812;42.632;23.440;2024-02-23T03:13:57;25.33;;;10.75;;
68178;SDS011;69812;42.632;23.440;2024-02-23T03:16:23;23.23;;;11.25;;
68178;SDS011;69812;42.632;23.440;2024-02-23T03:18:51;27.45;;;11.07;;
68178;SDS011;69812;42.632;23.440;2024-02-23T03:21:16;24.40;;;11.15;;
68178;SDS011;69812;42.632;23.440;2024-02-23T03:23:42;24.08;;;11.20;;
68178;SDS011;69812;42.632;23.440;2024-02-23T03:26:07;22.63;;;10.77;;
68178;SDS011;69812;42.632;23.440;2024-02-23T03:28:33;28.27;;;12.52;;
68178;SDS011;69812;42.632;23.440;2024-02-23T03:30:59;24.30;;;11.20;;
68178;SDS011;69812;42.632;23.440;2024-02-23T03:33:25;25.92;;;11.27;;
68178;SDS011;69812;42.632;23.440;2024-02-23T03:35:50;27.55;;;11.60;;
68178;SDS011;69812;42.632;23.440;2024-02-23T03:38:18;23.50;;;10.95;;
68178;SDS011;69812;42.632;23.440;2024-02-23T03:40:43;22.70;;;10.82;;
68178;SDS011;69812;42.632;23.440;2024-02-23T03:43:09;24.23;;;10.88;;
68178;SDS011;69812;42.632;23.440;2024-02-23T03:45:34;20.75;;;9.48;;
68178;SDS011;69812;42.632;23.440;2024-02-23T03:48:02;20.42;;;9.65;;
68178;SDS011;69812;42.632;23.440;2024-02-23T03:50:28;22.10;;;10.77;;
68178;SDS011;69812;42.632;23.440;2024-02-23T03:52:54;20.83;;;9.50;;
68178;SDS011;69812;42.632;23.440;2024-02-23T03:55:19;22.17;;;10.20;;
68178;SDS011;69812;42.632;23.440;2024-02-23T03:57:45;19.92;;;9.60;;
68178;SDS011;69812;42.632;23.440;2024-02-23T04:00:12;21.63;;;9.05;;
68178;SDS011;69812;42.632;23.440;2024-02-23T04:02:38;24.02;;;9.90;;
68178;SDS011;69812;42.632;23.440;2024-02-23T04:05:04;18.27;;;8.10;;
68178;SDS011;69812;42.632;23.440;2024-02-23T04:07:30;19.90;;;9.35;;
68178;SDS011;69812;42.632;23.440;2024-02-23T04:09:56;18.90;;;8.52;;
68178;SDS011;69812;42.632;23.440;2024-02-23T04:12:21;23.08;;;11.63;;
68178;SDS011;69812;42.632;23.440;2024-02-23T04:14:47;21.73;;;9.55;;
68178;SDS011;69812;42.632;23.440;2024-02-23T04:17:12;20.40;;;9.93;;
68178;SDS011;69812;42.632;23.440;2024-02-23T04:19:38;19.02;;;8.80;;
68178;SDS011;69812;42.632;23.440;2024-02-23T04:22:05;21.92;;;10.63;;
68178;SDS011;69812;42.632;23.440;2024-02-23T04:24:33;22.15;;;10.20;;
68178;SDS011;69812;42.632;23.440;2024-02-23T04:26:59;20.60;;;9.23;;
68178;SDS011;69812;42.632;23.440;2024-02-23T04:29:24;21.15;;;9.35;;
68178;SDS011;69812;42.632;23.440;2024-02-23T04:31:50;20.20;;;9.38;;
68178;SDS011;69812;42.632;23.440;2024-02-23T04:34:15;19.98;;;9.43;;
68178;SDS011;69812;42.632;23.440;2024-02-23T04:36:43;20.35;;;10.52;;
68178;SDS011;69812;42.632;23.440;2024-02-23T04:39:11;23.92;;;9.93;;
68178;SDS011;69812;42.632;23.440;2024-02-23T04:41:36;22.65;;;11.13;;
68178;SDS011;69812;42.632;23.440;2024-02-23T04:44:01;21.40;;;10.10;;
68178;SDS011;69812;42.632;23.440;2024-02-23T04:46:27;19.70;;;8.77;;
68178;SDS011;69812;42.632;23.440;2024-02-23T04:48:52;24.65;;;10.07;;
68178;SDS011;69812;42.632;23.440;2024-02-23T04:51:20;22.63;;;10.32;;
68178;SDS011;69812;42.632;23.440;2024-02-23T04:53:48;25.63;;;11.88;;
68178;SDS011;69812;42.632;23.440;2024-02-23T04:56:14;23.77;;;10.82;;
68178;SDS011;69812;42.632;23.440;2024-02-23T04:58:40;37.53;;;16.67;;
68178;SDS011;69812;42.632;23.440;2024-02-23T05:01:07;37.72;;;15.65;;
68178;SDS011;69812;42.632;23.440;2024-02-23T05:03:35;28.45;;;11.70;;
68178;SDS011;69812;42.632;23.440;2024-02-23T05:06:01;30.50;;;13.70;;
68178;SDS011;69812;42.632;23.440;2024-02-23T05:08:30;26.80;;;11.20;;
68178;SDS011;69812;42.632;23.440;2024-02-23T05:10:56;26.80;;;11.75;;
68178;SDS011;69812;42.632;23.440;2024-02-23T05:13:21;23.20;;;11.38;;
68178;SDS011;69812;42.632;23.440;2024-02-23T05:15:47;23.50;;;10.85;;
68178;SDS011;69812;42.632;23.440;2024-02-23T05:18:12;21.98;;;9.88;;
68178;SDS011;69812;42.632;23.440;2024-02-23T05:20:38;21.90;;;10.43;;
68178;SDS011;69812;42.632;23.440;2024-02-23T05:23:03;19.08;;;9.98;;
68178;SDS011;69812;42.632;23.440;2024-02-23T05:25:29;21.42;;;8.73;;
68178;SDS011;69812;42.632;23.440;2024-02-23T05:27:54;21.48;;;9.88;;
68178;SDS011;69812;42.632;23.440;2024-02-23T05:30:22;20.70;;;9.57;;
68178;SDS011;69812;42.632;23.440;2024-02-23T05:32:48;26.02;;;11.65;;
68178;SDS011;69812;42.632;23.440;2024-02-23T05:35:13;20.95;;;9.98;;
68178;SDS011;69812;42.632;23.440;2024-02-23T05:37:39;27.35;;;11.57;;
68178;SDS011;69812;42.632;23.440;2024-02-23T05:40:06;22.48;;;10.52;;
68178;SDS011;69812;42.632;23.440;2024-02-23T05:42:35;23.13;;;10.45;;
68178;SDS011;69812;42.632;23.440;2024-02-23T05:45:01;18.92;;;9.93;;
68178;SDS011;69812;42.632;23.440;2024-02-23T05:47:26;18.65;;;9.20;;
68178;SDS011;69812;42.632;23.440;2024-02-23T05:49:52;17.73;;;8.90;;
68178;SDS011;69812;42.632;23.440;2024-02-23T05:52:17;16.60;;;8.77;;
68178;SDS011;69812;42.632;23.440;2024-02-23T05:54:42;17.55;;;8.93;;
68178;SDS011;69812;42.632;23.440;2024-02-23T05:57:08;17.58;;;9.15;;
68178;SDS011;69812;42.632;23.440;2024-02-23T05:59:33;16.25;;;8.90;;
68178;SDS011;69812;42.632;23.440;2024-02-23T06:02:01;19.13;;;9.48;;
68178;SDS011;69812;42.632;23.440;2024-02-23T06:04:26;17.42;;;9.93;;
68178;SDS011;69812;42.632;23.440;2024-02-23T06:06:52;20.10;;;11.43;;
68178;SDS011;69812;42.632;23.440;2024-02-23T06:09:20;17.23;;;10.23;;
68178;SDS011;69812;42.632;23.440;2024-02-23T06:11:48;17.63;;;10.35;;
68178;SDS011;69812;42.632;23.440;2024-02-23T06:14:17;18.63;;;10.20;;
68178;SDS011;69812;42.632;23.440;2024-02-23T06:16:42;17.92;;;10.23;;
68178;SDS011;69812;42.632;23.440;2024-02-23T06:19:08;19.25;;;10.32;;
68178;SDS011;69812;42.632;23.440;2024-02-23T06:21:33;20.40;;;10.70;;
68178;SDS011;69812;42.632;23.440;2024-02-23T06:24:01;19.55;;;10.23;;
68178;SDS011;69812;42.632;23.440;2024-02-23T06:26:27;18.35;;;9.77;;
68178;SDS011;69812;42.632;23.440;2024-02-23T06:28:54;20.27;;;10.77;;
68178;SDS011;69812;42.632;23.440;2024-02-23T06:31:20;18.23;;;9.60;;
68178;SDS011;69812;42.632;23.440;2024-02-23T06:33:50;18.17;;;10.70;;
68178;SDS011;69812;42.632;23.440;2024-02-23T06:36:17;19.58;;;10.70;;
68178;SDS011;69812;42.632;23.440;2024-02-23T06:38:45;24.42;;;11.85;;
68178;SDS011;69812;42.632;23.440;2024-02-23T06:41:11;19.60;;;10.40;;
68178;SDS011;69812;42.632;23.440;2024-02-23T06:43:37;17.35;;;10.20;;
68178;SDS011;69812;42.632;23.440;2024-02-23T06:46:06;20.58;;;11.15;;
68178;SDS011;69812;42.632;23.440;2024-02-23T06:48:34;18.48;;;10.45;;
68178;SDS011;69812;42.632;23.440;2024-02-23T06:50:59;16.05;;;9.50;;
68178;SDS011;69812;42.632;23.440;2024-02-23T06:53:25;19.35;;;10.30;;
68178;SDS011;69812;42.632;23.440;2024-02-23T06:55:50;17.38;;;10.43;;
68178;SDS011;69812;42.632;23.440;2024-02-23T06:58:16;17.90;;;10.25;;
68178;SDS011;69812;42.632;23.440;2024-02-23T07:00:43;21.52;;;11.30;;
68178;SDS011;69812;42.632;23.440;2024-02-23T07:03:09;18.17;;;11.70;;
68178;SDS011;69812;42.632;23.440;2024-02-23T07:05:36;20.58;;;12.15;;
68178;SDS011;69812;42.632;23.440;2024-02-23T07:08:02;23.95;;;12.25;;
68178;SDS011;69812;42.632;23.440;2024-02-23T07:10:27;20.25;;;11.73;;
68178;SDS011;69812;42.632;23.440;2024-02-23T07:12:53;20.90;;;11.50;;
68178;SDS011;69812;42.632;23.440;2024-02-23T07:15:19;21.10;;;12.27;;
68178;SDS011;69812;42.632;23.440;2024-02-23T07:17:45;24.50;;;12.80;;
68178;SDS011;69812;42.632;23.440;2024-02-23T07:20:13;25.17;;;13.43;;
68178;SDS011;69812;42.632;23.440;2024-02-23T07:22:39;24.73;;;12.70;;
68178;SDS011;69812;42.632;23.440;2024-02-23T07:25:05;20.70;;;11.75;;
68178;SDS011;69812;42.632;23.440;2024-02-23T07:27:33;22.38;;;12.73;;
68178;SDS011;69812;42.632;23.440;2024-02-23T07:29:59;25.98;;;13.63;;
68178;SDS011;69812;42.632;23.440;2024-02-23T07:32:27;28.67;;;16.20;;
68178;SDS011;69812;42.632;23.440;2024-02-23T07:37:20;25.33;;;14.27;;
68178;SDS011;69812;42.632;23.440;2024-02-23T07:39:45;28.35;;;12.93;;
68178;SDS011;69812;42.632;23.440;2024-02-23T07:42:10;15.93;;;9.35;;
68178;SDS011;69812;42.632;23.440;2024-02-23T07:44:38;16.38;;;8.68;;
68178;SDS011;69812;42.632;23.440;2024-02-23T07:47:03;16.30;;;8.57;;
68178;SDS011;69812;42.632;23.440;2024-02-23T07:49:29;14.13;;;7.95;;
68178;SDS011;69812;42.632;23.440;2024-02-23T07:52:02;16.95;;;9.27;;
68178;SDS011;69812;42.632;23.440;2024-02-23T07:54:28;16.08;;;8.75;;
68178;SDS011;69812;42.632;23.440;2024-02-23T07:56:53;18.73;;;9.65;;
68178;SDS011;69812;42.632;23.440;2024-02-23T07:59:21;17.20;;;9.35;;
68178;SDS011;69812;42.632;23.440;2024-02-23T08:01:49;18.15;;;9.57;;
68178;SDS011;69812;42.632;23.440;2024-02-23T08:04:14;20.75;;;10.40;;
68178;SDS011;69812;42.632;23.440;2024-02-23T08:06:42;21.35;;;10.27;;
68178;SDS011;69812;42.632;23.440;2024-02-23T08:09:08;20.00;;;10.27;;
68178;SDS011;69812;42.632;23.440;2024-02-23T08:11:34;17.38;;;9.50;;
68178;SDS011;69812;42.632;23.440;2024-02-23T08:14:00;17.52;;;8.93;;
68178;SDS011;69812;42.632;23.440;2024-02-23T08:16:26;17.13;;;8.80;;
68178;SDS011;69812;42.632;23.440;2024-02-23T08:18:51;16.42;;;7.53;;
68178;SDS011;69812;42.632;23.440;2024-02-23T08:21:17;13.18;;;7.10;;
68178;SDS011;69812;42.632;23.440;2024-02-23T08:23:43;13.45;;;6.40;;
68178;SDS011;69812;42.632;23.440;2024-02-23T08:26:09;14.68;;;6.57;;
68178;SDS011;69812;42.632;23.440;2024-02-23T08:28:36;11.13;;;6.15;;
68178;SDS011;69812;42.632;23.440;2024-02-23T08:31:02;10.02;;;5.85;;
68178;SDS011;69812;42.632;23.440;2024-02-23T08:33:27;12.25;;;6.60;;
68178;SDS011;69812;42.632;23.440;2024-02-23T08:35:56;10.35;;;6.03;;
68178;SDS011;69812;42.632;23.440;2024-02-23T08:38:24;10.10;;;5.43;;
68178;SDS011;69812;42.632;23.440;2024-02-23T08:40:57;10.40;;;5.30;;
68178;SDS011;69812;42.632;23.440;2024-02-23T08:43:27;8.27;;;4.68;;
68178;SDS011;69812;42.632;23.440;2024-02-23T08:45:53;12.60;;;5.28;;
68178;SDS011;69812;42.632;23.440;2024-02-23T08:48:22;12.52;;;5.50;;
68178;SDS011;69812;42.632;23.440;2024-02-23T08:50:55;10.45;;;5.28;;
68178;SDS011;69812;42.632;23.440;2024-02-23T08:53:21;8.48;;;4.95;;
68178;SDS011;69812;42.632;23.440;2024-02-23T08:55:48;11.60;;;5.95;;
68178;SDS011;69812;42.632;23.440;2024-02-23T08:58:14;10.57;;;5.50;;
68178;SDS011;69812;42.632;23.440;2024-02-23T09:00:39;12.73;;;5.60;;
68178;SDS011;69812;42.632;23.440;2024-02-23T09:03:04;10.75;;;5.47;;
68178;SDS011;69812;42.632;23.440;2024-02-23T09:05:30;12.93;;;5.68;;
68178;SDS011;69812;42.632;23.440;2024-02-23T09:08:14;9.55;;;5.00;;
68178;SDS011;69812;42.632;23.440;2024-02-23T09:10:56;12.20;;;4.78;;
68178;SDS011;69812;42.632;23.440;2024-02-23T09:13:29;9.38;;;5.28;;
68178;SDS011;69812;42.632;23.440;2024-02-23T09:15:56;9.88;;;4.85;;
68178;SDS011;69812;42.632;23.440;2024-02-23T09:18:24;10.10;;;5.53;;
68178;SDS011;69812;42.632;23.440;2024-02-23T09:20:50;10.85;;;4.90;;
68178;SDS011;69812;42.632;23.440;2024-02-23T09:23:18;9.75;;;4.43;;
68178;SDS011;69812;42.632;23.440;2024-02-23T09:25:45;8.63;;;4.20;;
68178;SDS011;69812;42.632;23.440;2024-02-23T09:28:11;5.63;;;3.25;;
68178;SDS011;69812;42.632;23.440;2024-02-23T09:30:36;7.78;;;3.60;;
68178;SDS011;69812;42.632;23.440;2024-02-23T09:33:03;7.03;;;4.32;;
68178;SDS011;69812;42.632;23.440;2024-02-23T09:35:36;8.75;;;4.47;;
68178;SDS011;69812;42.632;23.440;2024-02-23T09:38:01;7.63;;;3.83;;
68178;SDS011;69812;42.632;23.440;2024-02-23T09:40:27;9.07;;;3.67;;
68178;SDS011;69812;42.632;23.440;2024-02-23T09:42:58;6.97;;;3.80;;
68178;SDS011;69812;42.632;23.440;2024-02-23T09:45:25;9.00;;;3.83;;
68178;SDS011;69812;42.632;23.440;2024-02-23T09:47:52;7.63;;;3.42;;
68178;SDS011;69812;42.632;23.440;2024-02-23T09:50:19;5.93;;;3.30;;
68178;SDS011;69812;42.632;23.440;2024-02-23T09:52:50;8.30;;;3.60;;
68178;SDS011;69812;42.632;23.440;2024-02-23T09:55:18;4.88;;;3.10;;
68178;SDS011;69812;42.632;23.440;2024-02-23T09:57:47;7.78;;;3.53;;
68178;SDS011;69812;42.632;23.440;2024-02-23T10:00:15;5.40;;;2.70;;
68178;SDS011;69812;42.632;23.440;2024-02-23T10:02:44;6.72;;;3.17;;
68178;SDS011;69812;42.632;23.440;2024-02-23T10:05:10;4.72;;;2.50;;
68178;SDS011;69812;42.632;23.440;2024-02-23T10:07:37;8.80;;;3.28;;
68178;SDS011;69812;42.632;23.440;2024-02-23T10:10:06;4.15;;;2.13;;
68178;SDS011;69812;42.632;23.440;2024-02-23T10:12:33;6.90;;;2.80;;
68178;SDS011;69812;42.632;23.440;2024-02-23T10:14:58;5.35;;;3.05;;
68178;SDS011;69812;42.632;23.440;2024-02-23T10:17:24;5.78;;;3.17;;
68178;SDS011;69812;42.632;23.440;2024-02-23T10:19:49;4.88;;;2.92;;
68178;SDS011;69812;42.632;23.440;2024-02-23T10:22:15;5.30;;;3.22;;
68178;SDS011;69812;42.632;23.440;2024-02-23T10:24:42;5.82;;;2.70;;
68178;SDS011;69812;42.632;23.440;2024-02-23T10:27:08;6.13;;;2.47;;
68178;SDS011;69812;42.632;23.440;2024-02-23T10:29:34;3.83;;;2.15;;
68178;SDS011;69812;42.632;23.440;2024-02-23T10:32:01;4.10;;;2.15;;
68178;SDS011;69812;42.632;23.440;2024-02-23T10:34:28;3.92;;;2.22;;
68178;SDS011;69812;42.632;23.440;2024-02-23T10:36:55;4.05;;;2.40;;
68178;SDS011;69812;42.632;23.440;2024-02-23T10:39:20;4.13;;;2.13;;
68178;SDS011;69812;42.632;23.440;2024-02-23T10:41:56;4.78;;;2.70;;
68178;SDS011;69812;42.632;23.440;2024-02-23T10:44:27;5.72;;;2.97;;
68178;SDS011;69812;42.632;23.440;2024-02-23T10:47:04;4.78;;;2.78;;
68178;SDS011;69812;42.632;23.440;2024-02-23T10:49:32;3.65;;;2.15;;
68178;SDS011;69812;42.632;23.440;2024-02-23T10:51:58;4.43;;;1.95;;
68178;SDS011;69812;42.632;23.440;2024-02-23T10:54:24;4.60;;;2.60;;
68178;SDS011;69812;42.632;23.440;2024-02-23T10:56:50;4.35;;;2.10;;
68178;SDS011;69812;42.632;23.440;2024-02-23T10:59:17;3.20;;;2.03;;
68178;SDS011;69812;42.632;23.440;2024-02-23T11:04:16;4.93;;;2.13;;
68178;SDS011;69812;42.632;23.440;2024-02-23T11:06:42;5.45;;;2.03;;
68178;SDS011;69812;42.632;23.440;2024-02-23T11:09:14;5.07;;;2.22;;
68178;SDS011;69812;42.632;23.440;2024-02-23T11:11:39;4.95;;;2.08;;
68178;SDS011;69812;42.632;23.440;2024-02-23T11:14:15;4.90;;;2.10;;
68178;SDS011;69812;42.632;23.440;2024-02-23T11:16:40;4.25;;;1.90;;
68178;SDS011;69812;42.632;23.440;2024-02-23T11:19:08;5.40;;;1.80;;
68178;SDS011;69812;42.632;23.440;2024-02-23T11:21:37;3.67;;;1.85;;
68178;SDS011;69812;42.632;23.440;2024-02-23T11:24:03;3.10;;;1.67;;
68178;SDS011;69812;42.632;23.440;2024-02-23T11:26:30;3.10;;;2.08;;
68178;SDS011;69812;42.632;23.440;2024-02-23T11:28:57;3.25;;;1.80;;
68178;SDS011;69812;42.632;23.440;2024-02-23T11:31:23;4.30;;;2.20;;
68178;SDS011;69812;42.632;23.440;2024-02-23T11:33:53;3.25;;;1.67;;
68178;SDS011;69812;42.632;23.440;2024-02-23T11:36:23;2.70;;;1.85;;
68178;SDS011;69812;42.632;23.440;2024-02-23T11:38:57;4.85;;;2.13;;
68178;SDS011;69812;42.632;23.440;2024-02-23T11:41:25;12.60;;;2.38;;
68178;SDS011;69812;42.632;23.440;2024-02-23T11:43:51;6.85;;;2.53;;
68178;SDS011;69812;42.632;23.440;2024-02-23T11:46:20;2.88;;;1.98;;
68178;SDS011;69812;42.632;23.440;2024-02-23T11:48:47;3.10;;;2.05;;
68178;SDS011;69812;42.632;23.440;2024-02-23T11:51:18;4.68;;;2.20;;
68178;SDS011;69812;42.632;23.440;2024-02-23T11:53:48;4.32;;;1.92;;
68178;SDS011;69812;42.632;23.440;2024-02-23T11:56:14;3.42;;;1.60;;
68178;SDS011;69812;42.632;23.440;2024-02-23T11:58:40;3.00;;;1.67;;
68178;SDS011;69812;42.632;23.440;2024-02-23T12:01:06;3.55;;;1.85;;
68178;SDS011;69812;42.632;23.440;2024-02-23T12:03:32;3.05;;;2.03;;
68178;SDS011;69812;42.632;23.440;2024-02-23T12:06:00;2.78;;;1.33;;
68178;SDS011;69812;42.632;23.440;2024-02-23T12:08:27;2.40;;;1.13;;
68178;SDS011;69812;42.632;23.440;2024-02-23T12:10:54;3.22;;;1.58;;
68178;SDS011;69812;42.632;23.440;2024-02-23T12:13:20;3.38;;;1.63;;
68178;SDS011;69812;42.632;23.440;2024-02-23T12:15:48;3.78;;;1.52;;
68178;SDS011;69812;42.632;23.440;2024-02-23T12:18:18;3.10;;;1.40;;
68178;SDS011;69812;42.632;23.440;2024-02-23T12:20:47;2.05;;;1.27;;
68178;SDS011;69812;42.632;23.440;2024-02-23T12:23:12;4.25;;;1.75;;
68178;SDS011;69812;42.632;23.440;2024-02-23T12:25:38;2.30;;;1.50;;
68178;SDS011;69812;42.632;23.440;2024-02-23T12:28:03;2.97;;;1.75;;
68178;SDS011;69812;42.632;23.440;2024-02-23T12:30:29;6.40;;;2.20;;
68178;SDS011;69812;42.632;23.440;2024-02-23T12:33:09;3.80;;;2.03;;
68178;SDS011;69812;42.632;23.440;2024-02-23T12:35:34;4.25;;;1.42;;
68178;SDS011;69812;42.632;23.440;2024-02-23T12:38:08;2.67;;;1.60;;
68178;SDS011;69812;42.632;23.440;2024-02-23T12:40:37;3.28;;;1.77;;
68178;SDS011;69812;42.632;23.440;2024-02-23T12:43:02;4.60;;;2.20;;
68178;SDS011;69812;42.632;23.440;2024-02-23T12:45:30;4.43;;;2.05;;
68178;SDS011;69812;42.632;23.440;2024-02-23T12:47:57;25.05;;;5.60;;
68178;SDS011;69812;42.632;23.440;2024-02-23T12:50:23;12.98;;;3.25;;
68178;SDS011;69812;42.632;23.440;2024-02-23T12:52:56;68.70;;;11.93;;
68178;SDS011;69812;42.632;23.440;2024-02-23T12:55:21;29.52;;;5.22;;
68178;SDS011;69812;42.632;23.440;2024-02-23T12:57:47;9.35;;;2.60;;
68178;SDS011;69812;42.632;23.440;2024-02-23T13:00:12;11.27;;;3.08;;
68178;SDS011;69812;42.632;23.440;2024-02-23T13:02:38;9.73;;;2.67;;
68178;SDS011;69812;42.632;23.440;2024-02-23T13:05:04;3.63;;;1.90;;
68178;SDS011;69812;42.632;23.440;2024-02-23T13:07:32;4.03;;;1.55;;
68178;SDS011;69812;42.632;23.440;2024-02-23T13:09:57;3.50;;;2.30;;
68178;SDS011;69812;42.632;23.440;2024-02-23T13:12:23;3.70;;;2.03;;
68178;SDS011;69812;42.632;23.440;2024-02-23T13:14:50;3.33;;;1.90;;
68178;SDS011;69812;42.632;23.440;2024-02-23T13:17:16;2.70;;;1.70;;
68178;SDS011;69812;42.632;23.440;2024-02-23T13:19:42;2.72;;;1.85;;
68178;SDS011;69812;42.632;23.440;2024-02-23T13:22:08;2.85;;;1.90;;
68178;SDS011;69812;42.632;23.440;2024-02-23T13:24:34;3.03;;;2.20;;
68178;SDS011;69812;42.632;23.440;2024-02-23T13:27:02;3.00;;;1.92;;
68178;SDS011;69812;42.632;23.440;2024-02-23T13:29:30;3.75;;;2.10;;
68178;SDS011;69812;42.632;23.440;2024-02-23T13:31:55;10.27;;;1.98;;
68178;SDS011;69812;42.632;23.440;2024-02-23T13:34:23;8.55;;;2.28;;
68178;SDS011;69812;42.632;23.440;2024-02-23T13:36:49;6.70;;;1.73;;
68178;SDS011;69812;42.632;23.440;2024-02-23T13:39:19;3.00;;;1.90;;
68178;SDS011;69812;42.632;23.440;2024-02-23T13:41:45;4.65;;;2.30;;
68178;SDS011;69812;42.632;23.440;2024-02-23T13:44:13;3.40;;;1.65;;
68178;SDS011;69812;42.632;23.440;2024-02-23T13:46:38;2.85;;;1.80;;
68178;SDS011;69812;42.632;23.440;2024-02-23T13:49:05;2.63;;;1.88;;
68178;SDS011;69812;42.632;23.440;2024-02-23T13:51:32;5.43;;;1.90;;
68178;SDS011;69812;42.632;23.440;2024-02-23T13:53:58;4.97;;;1.42;;
68178;SDS011;69812;42.632;23.440;2024-02-23T13:56:23;4.35;;;1.83;;
68178;SDS011;69812;42.632;23.440;2024-02-23T13:58:49;3.05;;;1.70;;
68178;SDS011;69812;42.632;23.440;2024-02-23T14:01:15;2.80;;;1.60;;
68178;SDS011;69812;42.632;23.440;2024-02-23T14:03:40;5.28;;;2.10;;
68178;SDS011;69812;42.632;23.440;2024-02-23T14:06:06;10.30;;;2.33;;
68178;SDS011;69812;42.632;23.440;2024-02-23T14:08:31;3.78;;;1.70;;
68178;SDS011;69812;42.632;23.440;2024-02-23T14:10:59;2.95;;;1.73;;
68178;SDS011;69812;42.632;23.440;2024-02-23T14:13:27;10.10;;;2.20;;
68178;SDS011;69812;42.632;23.440;2024-02-23T14:15:55;4.68;;;1.80;;
68178;SDS011;69812;42.632;23.440;2024-02-23T14:18:21;4.05;;;1.92;;
68178;SDS011;69812;42.632;23.440;2024-02-23T14:20:46;3.50;;;1.77;;
68178;SDS011;69812;42.632;23.440;2024-02-23T14:23:12;3.00;;;1.75;;